Time;durP1;ratioP1;P1;durP2;ratioP2;P2;SDS_P1;SDS_P2;PMS_P1;PMS_P2;Temp;Humidity;BMP_temperature;BMP_pressure;BME280_temperature;BME280_humidity;BME280_pressure;Samples;Min_cycle;Max_cycle;Signal;HPM_P1;HPM_P2
2022/10/13 00:02:17;;;;;;;0.10;0.10;;;;;;;;;;4929663;29;20125;-96
2022/10/13 00:04:47;;;;;;;0.20;0.20;;;;;;;;;;4940380;29;20045;-96
2022/10/13 00:07:27;;;;;;;0.10;0.10;;;;;;;;;;4925193;29;20142;-96
2022/10/13 00:34:04;;;;;;;0.10;0.10;;;;;;;;;;4897920;29;20123;-95
2022/10/13 00:36:32;;;;;;;0.10;0.10;;;;;;;;;;4885764;29;20121;-96
2022/10/13 00:39:01;;;;;;;0.10;0.10;;;;;;;;;;4886555;29;20048;-95
2022/10/13 00:41:28;;;;;;;0.10;0.10;;;;;;;;;;4885927;29;20047;-96
2022/10/13 00:43:58;;;;;;;0.10;0.10;;;;;;;;;;4916719;29;20216;-96
2022/10/13 00:46:26;;;;;;;0.10;0.10;;;;;;;;;;4900169;29;20048;-95
2022/10/13 00:48:53;;;;;;;0.10;0.10;;;;;;;;;;4885693;29;20044;-96
2022/10/13 00:51:22;;;;;;;0.10;0.10;;;;;;;;;;4901370;29;20371;-96
2022/10/13 00:54:03;;;;;;;0.10;0.10;;;;;;;;;;4885631;29;20131;-96
2022/10/13 02:10:29;;;;;;;0.10;0.10;;;;;;;;;;5938111;23;20019;-96
2022/10/13 02:12:59;;;;;;;0.10;0.10;;;;;;;;;;4919563;29;20056;-96
2022/10/13 02:15:36;;;;;;;0.10;0.10;;;;;;;;;;4919798;29;20050;-96
2022/10/13 02:18:23;;;;;;;0.10;0.10;;;;;;;;;;4937075;29;20111;-95
2022/10/13 02:20:54;;;;;;;0.10;0.10;;;;;;;;;;4903545;29;20510;-96
2022/10/13 02:23:20;;;;;;;0.10;0.10;;;;;;;;;;4903239;29;20396;-94
2022/10/13 02:45:50;;;;;;;0.10;0.10;;;;;;;;;;5561444;23;20086;-96
2022/10/13 02:48:17;;;;;;;0.10;0.10;;;;;;;;;;4907088;29;20051;-95
2022/10/13 02:50:43;;;;;;;0.10;0.10;;;;;;;;;;4902870;29;20044;-96
2022/10/13 02:53:12;;;;;;;0.35;0.35;;;;;;;;;;4888436;29;20382;-95
2022/10/13 02:55:38;;;;;;;0.20;0.20;;;;;;;;;;4887135;29;20047;-95
2022/10/13 02:58:28;;;;;;;0.10;0.10;;;;;;;;;;4887802;29;20096;-95
2022/10/13 03:01:40;;;;;;;0.10;0.10;;;;;;;;;;4903544;29;20094;-96
2022/10/13 03:04:03;;;;;;;0.10;0.10;;;;;;;;;;4905076;29;20390;-95
2022/10/13 03:06:29;;;;;;;0.10;0.10;;;;;;;;;;4887170;29;20044;-95
2022/10/13 03:09:00;;;;;;;0.10;0.10;;;;;;;;;;4887065;29;20040;-96
2022/10/13 03:11:40;;;;;;;;;;;;;;;;;;;;;
2022/10/13 03:14:06;;;;;;;0.10;0.10;;;;;;;;;;4904147;29;20044;-95
2022/10/13 03:16:32;;;;;;;0.10;0.10;;;;;;;;;;4886807;29;20044;-94
2022/10/13 03:18:58;;;;;;;0.10;0.10;;;;;;;;;;4886755;29;20079;-92
2022/10/13 03:21:24;;;;;;;0.20;0.20;;;;;;;;;;4886654;29;20083;-93
2022/10/13 03:23:50;;;;;;;0.10;0.10;;;;;;;;;;4886433;29;20481;-93
2022/10/13 03:26:16;;;;;;;0.10;0.10;;;;;;;;;;4886556;29;20040;-93
2022/10/13 03:28:42;;;;;;;0.20;0.20;;;;;;;;;;4886674;29;20040;-93
2022/10/13 03:31:21;;;;;;;0.10;0.10;;;;;;;;;;4887103;29;20044;-94
2022/10/13 03:33:47;;;;;;;0.10;0.10;;;;;;;;;;4905363;29;20402;-94
2022/10/13 03:36:13;;;;;;;0.20;0.20;;;;;;;;;;4889688;29;20036;-94
2022/10/13 03:38:39;;;;;;;0.30;0.28;;;;;;;;;;4886579;29;20044;-95
2022/10/13 03:41:07;;;;;;;0.13;0.13;;;;;;;;;;4886828;29;20438;-94
2022/10/13 03:43:34;;;;;;;0.10;0.10;;;;;;;;;;4886310;29;20048;-95
2022/10/13 03:46:00;;;;;;;0.10;0.10;;;;;;;;;;4886007;29;20062;-95
2022/10/13 03:48:26;;;;;;;0.40;0.32;;;;;;;;;;4886130;29;20055;-93
2022/10/13 03:50:52;;;;;;;0.17;0.17;;;;;;;;;;4886640;29;20434;-94
2022/10/13 03:53:18;;;;;;;0.20;0.20;;;;;;;;;;4886133;29;20069;-93
2022/10/13 03:55:49;;;;;;;0.10;0.10;;;;;;;;;;4885857;29;20130;-94
2022/10/13 03:58:15;;;;;;;0.15;0.15;;;;;;;;;;4886243;29;20058;-94
2022/10/13 04:13:40;;;;;;;0.10;0.10;;;;;;;;;;5138820;23;20062;-94
2022/10/13 04:16:11;;;;;;;0.10;0.10;;;;;;;;;;4923466;29;20134;-94
2022/10/13 04:18:37;;;;;;;0.30;0.30;;;;;;;;;;4923692;29;20045;-94
2022/10/13 04:21:07;;;;;;;0.10;0.10;;;;;;;;;;4923406;29;20042;-95
2022/10/13 04:37:25;;;;;;;0.10;0.10;;;;;;;;;;5039615;23;20052;-94
2022/10/13 04:39:51;;;;;;;0.10;0.10;;;;;;;;;;4904509;29;20552;-96
2022/10/13 04:42:17;;;;;;;0.10;0.10;;;;;;;;;;4904879;29;20179;-94
2022/10/13 04:44:44;;;;;;;0.10;0.10;;;;;;;;;;4903890;29;20094;-94
2022/10/13 04:47:10;;;;;;;0.10;0.10;;;;;;;;;;4904102;29;20083;-95
2022/10/13 04:49:36;;;;;;;0.10;0.10;;;;;;;;;;4904107;29;20135;-96
2022/10/13 04:58:16;;;;;;;0.20;0.20;;;;;;;;;;4933105;29;20039;-96
2022/10/13 05:00:45;;;;;;;0.10;0.10;;;;;;;;;;4904459;29;20507;-96
2022/10/13 05:03:18;;;;;;;0.17;0.17;;;;;;;;;;4904727;29;20047;-96
2022/10/13 05:05:49;;;;;;;0.10;0.10;;;;;;;;;;4907789;29;20047;-96
2022/10/13 05:08:19;;;;;;;0.10;0.10;;;;;;;;;;4922821;29;20047;-96
2022/10/13 05:10:59;;;;;;;0.10;0.10;;;;;;;;;;4904106;29;20079;-95
2022/10/13 05:13:25;;;;;;;1.50;0.20;;;;;;;;;;4919661;29;20477;-95
2022/10/13 05:15:51;;;;;;;0.10;0.10;;;;;;;;;;4903461;29;20039;-95
2022/10/13 05:18:17;;;;;;;0.10;0.10;;;;;;;;;;4903885;29;20321;-95
2022/10/13 05:20:43;;;;;;;0.10;0.10;;;;;;;;;;4903166;29;20056;-93
2022/10/13 05:23:09;;;;;;;0.30;0.30;;;;;;;;;;4903188;29;20047;-93
2022/10/13 05:25:35;;;;;;;0.10;0.10;;;;;;;;;;4902933;29;20130;-93
2022/10/13 05:28:02;;;;;;;0.10;0.10;;;;;;;;;;4903250;29;20044;-94
2022/10/13 05:30:28;;;;;;;0.10;0.10;;;;;;;;;;4903097;29;20102;-94
2022/10/13 05:32:54;;;;;;;0.30;0.30;;;;;;;;;;4903383;29;20047;-92
2022/10/13 05:35:20;;;;;;;0.10;0.10;;;;;;;;;;4903271;29;20116;-93
2022/10/13 05:37:46;;;;;;;0.20;0.20;;;;;;;;;;4903115;29;20052;-93
2022/10/13 05:40:12;;;;;;;0.17;0.17;;;;;;;;;;4903087;29;20062;-95
2022/10/13 05:42:38;;;;;;;0.10;0.10;;;;;;;;;;4903371;29;20396;-95
2022/10/13 05:45:05;;;;;;;0.10;0.10;;;;;;;;;;4903112;29;20481;-93
2022/10/13 05:47:31;;;;;;;0.10;0.10;;;;;;;;;;4902993;29;20062;-94
2022/10/13 05:49:57;;;;;;;0.10;0.10;;;;;;;;;;4903648;29;20462;-94
2022/10/13 05:52:23;;;;;;;0.10;0.10;;;;;;;;;;4902901;29;20047;-93
2022/10/13 05:54:50;;;;;;;0.10;0.10;;;;;;;;;;4902819;29;20249;-94
2022/10/13 05:57:24;;;;;;;0.10;0.10;;;;;;;;;;4903270;29;20450;-94
2022/10/13 05:59:52;;;;;;;0.10;0.10;;;;;;;;;;4902877;29;20043;-93
2022/10/13 06:02:18;;;;;;;0.10;0.10;;;;;;;;;;4903094;29;20050;-93
2022/10/13 06:04:47;;;;;;;0.10;0.10;;;;;;;;;;4904218;29;20043;-95
2022/10/13 06:07:28;;;;;;;0.28;0.28;;;;;;;;;;4907179;29;20050;-93
2022/10/13 06:09:56;;;;;;;0.10;0.10;;;;;;;;;;4919642;29;20493;-92
2022/10/13 06:12:22;;;;;;;0.10;0.10;;;;;;;;;;4906712;29;20386;-93
2022/10/13 06:14:48;;;;;;;0.20;0.20;;;;;;;;;;4922555;29;20039;-93
2022/10/13 06:17:14;;;;;;;0.10;0.10;;;;;;;;;;4906212;29;20127;-92
2022/10/13 06:19:40;;;;;;;0.20;0.20;;;;;;;;;;4906530;29;20083;-91
2022/10/13 06:22:07;;;;;;;0.20;0.20;;;;;;;;;;4906439;29;20516;-93
2022/10/13 06:24:33;;;;;;;0.20;0.20;;;;;;;;;;4905996;29;20043;-91
2022/10/13 06:26:58;;;;;;;0.10;0.10;;;;;;;;;;4905720;29;20091;-91
2022/10/13 06:29:49;;;;;;;0.30;0.30;;;;;;;;;;4908429;29;20488;-92
2022/10/13 06:32:19;;;;;;;0.20;0.20;;;;;;;;;;4921572;29;20043;-91
2022/10/13 06:34:44;;;;;;;0.10;0.10;;;;;;;;;;4921973;29;20040;-92
2022/10/13 06:37:10;;;;;;;0.10;0.10;;;;;;;;;;4905459;29;20455;-92
2022/10/13 06:39:37;;;;;;;0.10;0.10;;;;;;;;;;4905410;29;20055;-93
2022/10/13 06:42:03;;;;;;;0.20;0.20;;;;;;;;;;4905783;29;20051;-91
2022/10/13 06:44:30;;;;;;;0.10;0.10;;;;;;;;;;4905657;29;20075;-91
2022/10/13 06:46:56;;;;;;;0.10;0.10;;;;;;;;;;4908613;29;20144;-92
2022/10/13 06:49:22;;;;;;;0.10;0.10;;;;;;;;;;4911512;29;20051;-94
2022/10/13 06:51:48;;;;;;;0.10;0.10;;;;;;;;;;4910380;29;20126;-92
2022/10/13 06:54:22;;;;;;;0.10;0.10;;;;;;;;;;4910431;29;20071;-93
2022/10/13 06:56:48;;;;;;;0.10;0.10;;;;;;;;;;4931767;29;20075;-93
2022/10/13 07:02:21;;;;;;;0.10;0.10;;;;;;;;;;4953602;29;20055;-96
2022/10/13 07:04:47;;;;;;;0.20;0.20;;;;;;;;;;4919926;29;20051;-95
2022/10/13 07:07:16;;;;;;;0.10;0.10;;;;;;;;;;4920276;29;20044;-96
2022/10/13 07:09:42;;;;;;;0.10;0.10;;;;;;;;;;4912634;29;20039;-95
2022/10/13 07:12:09;;;;;;;0.10;0.10;;;;;;;;;;4907219;29;20043;-96
2022/10/13 07:14:58;;;;;;;0.10;0.10;;;;;;;;;;4908114;29;20040;-96
2022/10/13 07:17:26;;;;;;;0.10;0.10;;;;;;;;;;4922951;29;20126;-95
2022/10/13 07:19:52;;;;;;;0.10;0.10;;;;;;;;;;4907020;29;20066;-95
2022/10/13 07:22:19;;;;;;;0.10;0.10;;;;;;;;;;4905944;29;20039;-95
2022/10/13 07:24:45;;;;;;;0.10;0.10;;;;;;;;;;4907325;29;20044;-94
2022/10/13 07:27:11;;;;;;;0.20;0.20;;;;;;;;;;4905902;29;20068;-94
2022/10/13 07:29:37;;;;;;;0.10;0.10;;;;;;;;;;4907926;29;20046;-95
2022/10/13 07:32:03;;;;;;;0.10;0.10;;;;;;;;;;4905771;29;20156;-95
2022/10/13 07:34:35;;;;;;;0.10;0.10;;;;;;;;;;4905003;29;20046;-92
2022/10/13 07:37:03;;;;;;;0.10;0.10;;;;;;;;;;4920694;29;20501;-96
2022/10/13 07:39:41;;;;;;;0.10;0.10;;;;;;;;;;4906733;29;20047;-96
2022/10/13 07:42:07;;;;;;;0.15;0.15;;;;;;;;;;4908788;29;20067;-95
2022/10/13 07:44:33;;;;;;;0.10;0.10;;;;;;;;;;4905373;29;20044;-94
2022/10/13 07:52:50;;;;;;;0.10;0.10;;;;;;;;;;5269542;23;20413;-96
2022/10/13 07:55:16;;;;;;;0.10;0.10;;;;;;;;;;4923612;29;20047;-94
2022/10/13 07:57:44;;;;;;;0.15;0.15;;;;;;;;;;4923425;29;20118;-93
2022/10/13 08:00:20;;;;;;;0.10;0.10;;;;;;;;;;4923171;29;20036;-93
2022/10/13 08:02:49;;;;;;;1.00;1.00;;;;;;;;;;4919938;29;20050;-92
2022/10/13 08:05:22;;;;;;;0.10;0.10;;;;;;;;;;4904461;29;20126;-92
2022/10/13 08:08:23;;;;;;;0.10;0.10;;;;;;;;;;4920096;29;20055;-93
2022/10/13 08:10:49;;;;;;;0.40;0.40;;;;;;;;;;4919927;29;20043;-94
2022/10/13 08:13:15;;;;;;;0.10;0.10;;;;;;;;;;4904106;29;20047;-92
2022/10/13 08:15:48;;;;;;;0.35;0.35;;;;;;;;;;4903717;29;20389;-92
2022/10/13 08:18:15;;;;;;;0.22;0.22;;;;;;;;;;4918801;29;20134;-91
2022/10/13 08:20:41;;;;;;;0.10;0.10;;;;;;;;;;4918641;29;20047;-91
2022/10/13 08:23:09;;;;;;;0.20;0.20;;;;;;;;;;4903281;29;20044;-91
2022/10/13 08:25:41;;;;;;;0.10;0.10;;;;;;;;;;4919043;29;20051;-94
2022/10/13 08:28:07;;;;;;;;;;;;;;;;;;4920135;29;20398;-91
2022/10/13 08:30:33;;;;;;;0.45;0.40;;;;;;;;;;4919410;29;19925;-91
2022/10/13 08:32:59;;;;;;;0.10;0.10;;;;;;;;;;4902332;29;20047;-93
2022/10/13 08:35:26;;;;;;;0.10;0.10;;;;;;;;;;4903304;29;20051;-93
2022/10/13 08:37:52;;;;;;;0.30;0.20;;;;;;;;;;4918543;29;20091;-92
2022/10/13 08:40:19;;;;;;;0.10;0.10;;;;;;;;;;4903417;29;20086;-95
2022/10/13 08:42:45;;;;;;;0.10;0.10;;;;;;;;;;4903510;29;20075;-93
2022/10/13 08:45:15;;;;;;;0.20;0.20;;;;;;;;;;4903222;29;20082;-94
2022/10/13 08:48:08;;;;;;;0.20;0.20;;;;;;;;;;4903547;29;20130;-96
2022/10/13 08:50:39;;;;;;;1.00;1.00;;;;;;;;;;4934668;29;20083;-95
2022/10/13 08:53:18;;;;;;;1.13;0.30;;;;;;;;;;4918734;29;20059;-94
2022/10/13 08:55:48;;;;;;;0.20;0.20;;;;;;;;;;4903194;29;20135;-91
2022/10/13 08:58:23;;;;;;;0.10;0.10;;;;;;;;;;4903063;29;20079;-95
2022/10/13 09:01:11;;;;;;;0.10;0.10;;;;;;;;;;4935382;29;20051;-94
2022/10/13 09:04:10;;;;;;;0.10;0.10;;;;;;;;;;4921782;29;20134;-94
2022/10/13 09:06:56;;;;;;;0.10;0.10;;;;;;;;;;4921473;29;20160;-91
2022/10/13 09:09:22;;;;;;;0.13;0.13;;;;;;;;;;4902307;29;20043;-90
2022/10/13 09:11:49;;;;;;;0.10;0.10;;;;;;;;;;4902270;29;20103;-90
2022/10/13 09:14:34;;;;;;;0.15;0.15;;;;;;;;;;4902327;29;20043;-90
2022/10/13 09:17:19;;;;;;;0.95;0.35;;;;;;;;;;4902355;29;20040;-90
2022/10/13 09:19:56;;;;;;;0.10;0.10;;;;;;;;;;4902784;29;20054;-92
2022/10/13 09:22:30;;;;;;;0.10;0.10;;;;;;;;;;4902169;29;20492;-91
2022/10/13 09:25:08;;;;;;;0.10;0.10;;;;;;;;;;4902332;29;20397;-91
2022/10/13 09:27:42;;;;;;;0.10;0.10;;;;;;;;;;4933523;29;20083;-91
2022/10/13 09:30:21;;;;;;;0.28;0.28;;;;;;;;;;4902297;29;20046;-91
2022/10/13 09:32:49;;;;;;;0.10;0.10;;;;;;;;;;4902718;29;20115;-93
2022/10/13 09:35:21;;;;;;;0.20;0.20;;;;;;;;;;4903167;29;20036;-91
2022/10/13 09:38:01;;;;;;;0.10;0.10;;;;;;;;;;4913005;29;20164;-93
2022/10/13 09:40:30;;;;;;;0.10;0.10;;;;;;;;;;4925281;29;20039;-92
2022/10/13 09:43:01;;;;;;;0.10;0.10;;;;;;;;;;5166311;23;20066;-95
2022/10/13 09:45:42;;;;;;;0.13;0.13;;;;;;;;;;4961923;28;20047;-93
2022/10/13 09:48:41;;;;;;;0.10;0.10;;;;;;;;;;4943485;29;20125;-95
2022/10/13 09:58:19;;;;;;;0.10;0.10;;;;;;;;;;5526782;23;20058;-95
2022/10/13 10:09:04;;;;;;;0.10;0.10;;;;;;;;;;5532119;23;20059;-91
2022/10/13 10:11:52;;;;;;;0.10;0.10;;;;;;;;;;4911959;29;20048;-91
2022/10/13 10:14:27;;;;;;;0.10;0.10;;;;;;;;;;4887537;29;20047;-93
2022/10/13 10:16:57;;;;;;;0.10;0.10;;;;;;;;;;4903150;29;20058;-90
2022/10/13 10:19:31;;;;;;;0.10;0.10;;;;;;;;;;4903003;29;20040;-90
2022/10/13 10:22:02;;;;;;;0.10;0.10;;;;;;;;;;4886591;29;20072;-90
2022/10/13 10:24:52;;;;;;;0.10;0.10;;;;;;;;;;4903877;29;20489;-93
2022/10/13 10:27:51;;;;;;;0.10;0.10;;;;;;;;;;4925269;29;20052;-96
2022/10/13 10:34:00;;;;;;;0.10;0.10;;;;;;;;;;5490185;23;20052;-94
2022/10/13 10:36:49;;;;;;;0.10;0.10;;;;;;;;;;4955762;29;20142;-93
2022/10/13 10:39:21;;;;;;;0.10;0.10;;;;;;;;;;4939073;29;20404;-93
2022/10/13 10:41:47;;;;;;;0.10;0.10;;;;;;;;;;4924491;29;20054;-93
2022/10/13 10:44:46;;;;;;;0.10;0.10;;;;;;;;;;4940200;29;20051;-92
2022/10/13 10:47:27;;;;;;;0.10;0.10;;;;;;;;;;4945625;29;20067;-96
2022/10/13 10:49:56;;;;;;;0.10;0.10;;;;;;;;;;4927318;29;20040;-93
2022/10/13 10:52:45;;;;;;;0.10;0.10;;;;;;;;;;4930360;29;20040;-96
2022/10/13 10:55:32;;;;;;;0.20;0.20;;;;;;;;;;4970237;28;20036;-96
2022/10/13 10:58:04;;;;;;;0.20;0.20;;;;;;;;;;4939800;29;20047;-91
2022/10/13 11:00:30;;;;;;;0.10;0.10;;;;;;;;;;4920342;29;20044;-92
2022/10/13 11:02:59;;;;;;;0.10;0.10;;;;;;;;;;4920516;29;20098;-93
2022/10/13 11:05:25;;;;;;;0.10;0.10;;;;;;;;;;4937202;29;20065;-92
2022/10/13 11:07:51;;;;;;;0.10;0.10;;;;;;;;;;4921402;29;20051;-93
2022/10/13 11:10:20;;;;;;;0.25;0.25;;;;;;;;;;4936608;29;20036;-93
2022/10/13 11:12:47;;;;;;;0.90;0.20;;;;;;;;;;4921257;29;20050;-94
2022/10/13 11:15:15;;;;;;;0.10;0.10;;;;;;;;;;4920930;29;20047;-92
2022/10/13 11:17:41;;;;;;;0.10;0.10;;;;;;;;;;4920347;29;20039;-92
2022/10/13 11:20:16;;;;;;;0.10;0.10;;;;;;;;;;4920492;29;20317;-92
2022/10/13 11:22:46;;;;;;;0.10;0.10;;;;;;;;;;4936314;29;20055;-94
2022/10/13 11:25:31;;;;;;;0.10;0.10;;;;;;;;;;4920978;29;20441;-93
2022/10/13 11:27:57;;;;;;;0.10;0.10;;;;;;;;;;4936026;29;20075;-93
2022/10/13 11:30:39;;;;;;;0.10;0.10;;;;;;;;;;4920616;29;20148;-92
2022/10/13 11:33:25;;;;;;;0.10;0.10;;;;;;;;;;4919959;29;20489;-92
2022/10/13 11:35:51;;;;;;;0.45;0.20;;;;;;;;;;4936284;29;20040;-93
2022/10/13 11:38:22;;;;;;;0.20;0.20;;;;;;;;;;4920625;29;20098;-93
2022/10/13 11:41:14;;;;;;;0.10;0.10;;;;;;;;;;4921353;29;20587;-96
2022/10/13 11:44:09;;;;;;;0.10;0.10;;;;;;;;;;4923025;29;20051;-94
2022/10/13 11:46:57;;;;;;;0.10;0.10;;;;;;;;;;4920946;29;20057;-96
2022/10/13 11:49:30;;;;;;;0.20;0.20;;;;;;;;;;4937846;29;20044;-92
2022/10/13 11:52:14;;;;;;;0.10;0.10;;;;;;;;;;4936503;29;20046;-93
2022/10/13 11:54:41;;;;;;;0.10;0.10;;;;;;;;;;4935665;29;20150;-94
2022/10/13 11:57:17;;;;;;;0.10;0.10;;;;;;;;;;4935554;29;20063;-94
2022/10/13 11:59:45;;;;;;;0.10;0.10;;;;;;;;;;4935923;29;20048;-94
2022/10/13 12:02:15;;;;;;;0.10;0.10;;;;;;;;;;4920108;29;20079;-94
2022/10/13 12:04:44;;;;;;;0.10;0.10;;;;;;;;;;4905524;29;20146;-94
2022/10/13 12:07:10;;;;;;;0.15;0.15;;;;;;;;;;4919292;29;20337;-94
2022/10/13 12:09:41;;;;;;;0.38;0.38;;;;;;;;;;4919730;29;20102;-93
2022/10/13 12:12:14;;;;;;;0.10;0.10;;;;;;;;;;4919936;29;20083;-94
2022/10/13 12:14:42;;;;;;;0.10;0.10;;;;;;;;;;4919875;29;20131;-93
2022/10/13 12:17:23;;;;;;;0.10;0.10;;;;;;;;;;4920430;29;20130;-96
2022/10/13 12:19:52;;;;;;;0.10;0.10;;;;;;;;;;4935774;29;20297;-94
2022/10/13 12:22:21;;;;;;;0.20;0.20;;;;;;;;;;4919605;29;20043;-94
2022/10/13 12:25:05;;;;;;;0.10;0.10;;;;;;;;;;4903827;29;20494;-95
2022/10/13 12:27:32;;;;;;;0.15;0.15;;;;;;;;;;4919053;29;20059;-95
2022/10/13 12:30:04;;;;;;;0.10;0.10;;;;;;;;;;4919852;29;20040;-95
2022/10/13 12:49:53;;;;;;;0.10;0.10;;;;;;;;;;5412589;23;20046;-95
2022/10/13 12:52:21;;;;;;;0.10;0.10;;;;;;;;;;4959274;28;20239;-94
2022/10/13 12:54:54;;;;;;;0.20;0.20;;;;;;;;;;4946853;28;20377;-95
2022/10/13 12:57:34;;;;;;;0.10;0.10;;;;;;;;;;4948825;28;20073;-92
2022/10/13 13:00:01;;;;;;;0.47;0.47;;;;;;;;;;4943881;28;20503;-90
2022/10/13 13:02:28;;;;;;;0.20;0.20;;;;;;;;;;4943792;28;20050;-93
2022/10/13 13:04:57;;;;;;;0.10;0.10;;;;;;;;;;4944339;28;20082;-89
2022/10/13 13:07:27;;;;;;;0.10;0.10;;;;;;;;;;4943872;28;20038;-90
2022/10/13 13:10:08;;;;;;;0.10;0.10;;;;;;;;;;4959406;28;20034;-91
2022/10/13 13:12:35;;;;;;;0.10;0.10;;;;;;;;;;4959946;28;20038;-92
2022/10/13 13:15:37;;;;;;;0.10;0.10;;;;;;;;;;4959646;28;20054;-91
2022/10/13 13:18:21;;;;;;;0.10;0.10;;;;;;;;;;4863745;29;20080;-90
2022/10/13 13:20:48;;;;;;;0.20;0.20;;;;;;;;;;4952220;28;20411;-91
2022/10/13 13:23:17;;;;;;;0.10;0.10;;;;;;;;;;4959492;28;20053;-94
2022/10/13 13:25:43;;;;;;;0.10;0.10;;;;;;;;;;4944616;28;20074;-93
2022/10/13 13:28:10;;;;;;;0.10;0.10;;;;;;;;;;4946359;28;20089;-93
2022/10/13 13:30:37;;;;;;;0.10;0.10;;;;;;;;;;4944103;28;20084;-94
2022/10/13 13:33:04;;;;;;;0.10;0.10;;;;;;;;;;4942819;28;20074;-91
2022/10/13 13:35:30;;;;;;;0.10;0.10;;;;;;;;;;4943648;28;20455;-91
2022/10/13 13:38:22;;;;;;;0.10;0.10;;;;;;;;;;4943028;28;20042;-96
2022/10/13 13:44:12;;;;;;;0.85;0.25;;;;;;;;;;5375376;23;20472;-92
2022/10/13 13:46:38;;;;;;;0.10;0.10;;;;;;;;;;4943700;28;20050;-92
2022/10/13 13:52:40;;;;;;;0.10;0.10;;;;;;;;;;4916322;28;20040;-95
2022/10/13 13:55:12;;;;;;;0.10;0.10;;;;;;;;;;4949280;28;20038;-93
2022/10/13 13:57:38;;;;;;;0.10;0.10;;;;;;;;;;4943441;28;20486;-91
2022/10/13 14:00:05;;;;;;;0.10;0.10;;;;;;;;;;4974892;28;20053;-90
2022/10/13 14:02:31;;;;;;;0.10;0.10;;;;;;;;;;4943312;28;20039;-92
2022/10/13 14:04:57;;;;;;;0.10;0.10;;;;;;;;;;4943094;28;20042;-91
2022/10/13 14:07:23;;;;;;;0.10;0.10;;;;;;;;;;4943519;28;20069;-91
2022/10/13 14:09:49;;;;;;;0.20;0.20;;;;;;;;;;4943368;28;20042;-91
2022/10/13 14:12:15;;;;;;;0.15;0.15;;;;;;;;;;4943091;28;20045;-91
2022/10/13 14:14:41;;;;;;;0.10;0.10;;;;;;;;;;4942995;28;20042;-92
2022/10/13 14:17:07;;;;;;;2.38;0.20;;;;;;;;;;4943055;28;20400;-89
2022/10/13 14:19:33;;;;;;;0.10;0.10;;;;;;;;;;4958249;28;20045;-89
2022/10/13 14:22:00;;;;;;;0.10;0.10;;;;;;;;;;4958425;28;20042;-88
2022/10/13 14:24:26;;;;;;;0.10;0.10;;;;;;;;;;4942794;28;20419;-89
2022/10/13 14:26:54;;;;;;;0.10;0.10;;;;;;;;;;4944260;28;20096;-91
2022/10/13 14:29:21;;;;;;;0.10;0.10;;;;;;;;;;4942925;28;20042;-91
2022/10/13 14:31:49;;;;;;;0.10;0.10;;;;;;;;;;4977099;28;20034;-93
2022/10/13 14:34:15;;;;;;;0.20;0.20;;;;;;;;;;4946798;28;20113;-90
2022/10/13 14:36:41;;;;;;;0.10;0.10;;;;;;;;;;4962661;28;20043;-92
2022/10/13 14:39:07;;;;;;;0.10;0.10;;;;;;;;;;4946154;28;20042;-90
2022/10/13 14:41:33;;;;;;;0.10;0.10;;;;;;;;;;4946103;28;20065;-89
2022/10/13 14:43:59;;;;;;;0.10;0.10;;;;;;;;;;4933677;28;20062;-91
2022/10/13 14:46:25;;;;;;;0.10;0.10;;;;;;;;;;4908473;29;20039;-94
2022/10/13 14:48:51;;;;;;;0.10;0.10;;;;;;;;;;4909283;29;20066;-90
2022/10/13 14:51:17;;;;;;;0.20;0.20;;;;;;;;;;4908488;29;20046;-91
2022/10/13 14:53:43;;;;;;;0.10;0.10;;;;;;;;;;4908246;29;20039;-90
2022/10/13 14:56:23;;;;;;;0.10;0.10;;;;;;;;;;4923826;29;20480;-93
2022/10/13 14:58:49;;;;;;;0.10;0.10;;;;;;;;;;4908579;29;20079;-91
2022/10/13 15:01:15;;;;;;;0.10;0.10;;;;;;;;;;4923846;29;20039;-90
2022/10/13 15:03:41;;;;;;;0.10;0.10;;;;;;;;;;4912670;29;20079;-90
2022/10/13 15:06:10;;;;;;;0.10;0.10;;;;;;;;;;4923626;29;20440;-92
2022/10/13 15:08:36;;;;;;;0.10;0.10;;;;;;;;;;4908302;29;20088;-91
2022/10/13 15:11:02;;;;;;;0.13;0.13;;;;;;;;;;4907458;29;20563;-92
2022/10/13 15:13:28;;;;;;;0.20;0.20;;;;;;;;;;4907910;29;20039;-91
2022/10/13 15:15:54;;;;;;;0.10;0.10;;;;;;;;;;4907558;29;20044;-91
2022/10/13 15:18:22;;;;;;;0.20;0.20;;;;;;;;;;4907804;29;20113;-93
2022/10/13 15:20:48;;;;;;;0.20;0.20;;;;;;;;;;4941927;28;20053;-92
2022/10/13 15:23:14;;;;;;;0.10;0.10;;;;;;;;;;4926534;28;20049;-92
2022/10/13 15:25:48;;;;;;;0.20;0.20;;;;;;;;;;4926293;28;20045;-92
2022/10/13 15:28:14;;;;;;;0.10;0.10;;;;;;;;;;4927475;28;20043;-92
2022/10/13 15:30:40;;;;;;;0.10;0.10;;;;;;;;;;4926505;28;20129;-91
2022/10/13 15:33:06;;;;;;;0.10;0.10;;;;;;;;;;4926627;28;20563;-91
2022/10/13 15:35:32;;;;;;;0.10;0.10;;;;;;;;;;4927649;28;20077;-92
2022/10/13 15:37:58;;;;;;;0.10;0.10;;;;;;;;;;4926579;29;20053;-93
2022/10/13 15:40:27;;;;;;;0.20;0.20;;;;;;;;;;4942819;29;20513;-94
2022/10/13 15:43:11;;;;;;;0.10;0.10;;;;;;;;;;4909824;29;20131;-95
2022/10/13 15:45:37;;;;;;;0.15;0.15;;;;;;;;;;4944026;28;20088;-93
2022/10/13 15:48:06;;;;;;;0.10;0.10;;;;;;;;;;4959376;28;20047;-95
2022/10/13 15:50:32;;;;;;;0.10;0.10;;;;;;;;;;4959516;28;20078;-94
2022/10/13 15:52:58;;;;;;;0.10;0.10;;;;;;;;;;4968534;28;20039;-92
2022/10/13 15:55:24;;;;;;;0.10;0.10;;;;;;;;;;4982423;28;20039;-93
2022/10/13 15:57:53;;;;;;;0.20;0.20;;;;;;;;;;4982278;28;20038;-93
2022/10/13 16:00:19;;;;;;;0.13;0.13;;;;;;;;;;4982808;28;20066;-92
2022/10/13 16:05:47;;;;;;;0.20;0.20;;;;;;;;;;4973514;28;20050;-93
2022/10/13 16:08:16;;;;;;;0.10;0.10;;;;;;;;;;4957404;28;20157;-93
2022/10/13 16:10:59;;;;;;;0.10;0.10;;;;;;;;;;4959662;28;20051;-93
2022/10/13 16:13:25;;;;;;;0.10;0.10;;;;;;;;;;4957988;28;20074;-93
2022/10/13 16:16:11;;;;;;;1.20;0.63;;;;;;;;;;4957713;28;20053;-93
2022/10/13 16:18:39;;;;;;;0.10;0.10;;;;;;;;;;4971765;28;20077;-93
2022/10/13 16:21:14;;;;;;;0.10;0.10;;;;;;;;;;4973080;28;20042;-92
2022/10/13 16:23:40;;;;;;;0.10;0.10;;;;;;;;;;4957886;28;20436;-94
2022/10/13 16:26:06;;;;;;;0.10;0.10;;;;;;;;;;4957669;28;20043;-94
2022/10/13 16:28:34;;;;;;;0.10;0.10;;;;;;;;;;4958009;28;20049;-95
2022/10/13 16:31:12;;;;;;;0.10;0.10;;;;;;;;;;4959190;28;20051;-94
2022/10/13 16:33:38;;;;;;;0.10;0.10;;;;;;;;;;4973762;28;20073;-94
2022/10/13 16:36:05;;;;;;;0.10;0.10;;;;;;;;;;4957781;28;20039;-93
2022/10/13 16:38:51;;;;;;;0.10;0.10;;;;;;;;;;4958768;28;20054;-94
2022/10/13 16:45:11;;;;;;;0.10;0.10;;;;;;;;;;4909132;29;20052;-92
2022/10/13 16:47:51;;;;;;;0.10;0.10;;;;;;;;;;4876370;29;20064;-96
2022/10/13 16:50:20;;;;;;;0.10;0.10;;;;;;;;;;4870759;29;20520;-94
2022/10/13 16:53:00;;;;;;;0.10;0.10;;;;;;;;;;4867609;29;20044;-95
2022/10/13 16:55:27;;;;;;;0.10;0.10;;;;;;;;;;4868827;29;20044;-94
2022/10/13 16:57:56;;;;;;;0.10;0.10;;;;;;;;;;4899531;29;20044;-95
2022/10/13 17:00:44;;;;;;;0.10;0.10;;;;;;;;;;4915686;28;20058;-93
2022/10/13 17:03:10;;;;;;;0.10;0.10;;;;;;;;;;4973585;28;20047;-94
2022/10/13 17:05:37;;;;;;;0.10;0.10;;;;;;;;;;4956994;28;20042;-94
2022/10/13 17:08:03;;;;;;;0.22;0.22;;;;;;;;;;4956770;28;20106;-94
2022/10/13 17:10:32;;;;;;;0.10;0.10;;;;;;;;;;4959495;28;20047;-93
2022/10/13 17:12:58;;;;;;;0.20;0.20;;;;;;;;;;4972975;28;20050;-87
2022/10/13 17:15:24;;;;;;;0.10;0.10;;;;;;;;;;4956173;28;20043;-87
2022/10/13 17:17:50;;;;;;;0.10;0.10;;;;;;;;;;4956136;28;20042;-87
2022/10/13 17:20:16;;;;;;;0.10;0.10;;;;;;;;;;4972007;28;20472;-86
2022/10/13 17:22:42;;;;;;;0.10;0.10;;;;;;;;;;4972141;28;20070;-87
2022/10/13 17:25:08;;;;;;;0.10;0.10;;;;;;;;;;4972242;28;20080;-87
2022/10/13 17:27:35;;;;;;;0.10;0.10;;;;;;;;;;4972302;28;20126;-92
2022/10/13 17:30:01;;;;;;;0.10;0.10;;;;;;;;;;4956160;28;20050;-90
2022/10/13 17:32:27;;;;;;;0.10;0.10;;;;;;;;;;4956624;28;20066;-91
2022/10/13 17:34:53;;;;;;;0.30;0.30;;;;;;;;;;4971898;28;20089;-89
2022/10/13 17:37:19;;;;;;;0.10;0.10;;;;;;;;;;4955899;28;20047;-89
2022/10/13 17:39:45;;;;;;;0.10;0.10;;;;;;;;;;4956115;28;20048;-89
2022/10/13 17:42:11;;;;;;;0.10;0.10;;;;;;;;;;4956067;28;20439;-89
2022/10/13 17:44:37;;;;;;;0.10;0.10;;;;;;;;;;4955848;28;20588;-89
2022/10/13 17:47:03;;;;;;;0.10;0.10;;;;;;;;;;4955976;28;20126;-90
2022/10/13 17:49:29;;;;;;;0.10;0.10;;;;;;;;;;4971744;28;20062;-90
2022/10/13 17:51:55;;;;;;;0.20;0.20;;;;;;;;;;4971745;28;20439;-89
2022/10/13 17:54:23;;;;;;;0.10;0.10;;;;;;;;;;4972101;28;20043;-89
2022/10/13 17:56:49;;;;;;;0.10;0.10;;;;;;;;;;4988070;28;20050;-90
2022/10/13 17:59:15;;;;;;;0.10;0.10;;;;;;;;;;4972471;28;20449;-93
2022/10/13 18:01:41;;;;;;;0.10;0.10;;;;;;;;;;4956877;28;20400;-90
2022/10/13 18:04:10;;;;;;;0.10;0.10;;;;;;;;;;4955775;28;20047;-88
2022/10/13 18:06:38;;;;;;;0.10;0.10;;;;;;;;;;4959823;28;20106;-88
2022/10/13 18:09:23;;;;;;;0.10;0.10;;;;;;;;;;4959776;28;20089;-87
2022/10/13 18:11:50;;;;;;;0.10;0.10;;;;;;;;;;4959393;28;20039;-86
2022/10/13 18:14:17;;;;;;;0.10;0.10;;;;;;;;;;4959474;28;20469;-88
2022/10/13 18:16:43;;;;;;;0.10;0.10;;;;;;;;;;4959621;28;20034;-87
2022/10/13 18:19:09;;;;;;;0.13;0.13;;;;;;;;;;4959499;28;20057;-88
2022/10/13 18:21:35;;;;;;;0.10;0.10;;;;;;;;;;4959336;28;20551;-88
2022/10/13 18:24:01;;;;;;;0.10;0.10;;;;;;;;;;4959305;28;20043;-86
2022/10/13 18:26:30;;;;;;;0.13;0.13;;;;;;;;;;4975526;28;20100;-86
2022/10/13 18:28:56;;;;;;;0.10;0.10;;;;;;;;;;4974844;28;20089;-86
2022/10/13 18:31:23;;;;;;;0.10;0.10;;;;;;;;;;4975216;28;20484;-86
2022/10/13 18:33:49;;;;;;;0.10;0.10;;;;;;;;;;4958991;28;20051;-86